< < Back
Terminal Aerodrome Forecast


Current Version              Previous Versions:   1  2  3  4  5  6  7  8  9  

Terminal Aerodrome Forecast

594
FTUS44 KBMX 212300
TAFTCL
TAF
KTCL 212321Z 2200/2224 00000KT P6SM SKC
     FM221500 28005KT P6SM SCT050=



Latest METAR

365
SAUS70 KWBC 220400 RRG
MTRTCL
METAR KTCL 220353Z AUTO 29003KT 10SM CLR 28/21 A3010 RMK AO2 SLP191
T02780211


USA.gov is the U.S. government's official web portal to all federal, state and local government web resources and services.